Aviation Digital Data Service (ADDS)

Output produced by METARs form (1739 UTC 21 September 2017)
found at http://www.aviationweather.gov/adds/metars/
 
KBWI 211654Z VRB06KT 10SM FEW060 FEW160 BKN200 29/18 A3003 RMK AO2 SLP167 T02940178
KBWI 211730Z 2118/2224 01006KT P6SM FEW060 SCT200
       
KMTN 211645Z 00000KT 10SM SCT120 28/22 A3005
KMTN 211730Z 2118/2218 01004KT P6SM FEW045 SCT120
       
KCGE 211725Z AUTO 31006G11KT 10SM CLR 28/19 A3001 RMK A01
KADW 211658Z 35006KT 10SM FEW048 29/17 A3004 RMK AO2A SLP177 T02870172
TAF KADW 211700Z 2117/2223 34006KT 9999 FEW040 FEW200 QNH3001INS TX30/2118Z TN18/2209Z
       
KCBE 211726Z AUTO 03006KT 10SM CLR 30/13 A3012 RMK AO1
KFME 211724Z AUTO 36004KT 10SM CLR 28/18 A3006 RMK AO1
KFDK 211648Z 00000KT 10SM FEW035 29/11 A3009
KGAI 211656Z AUTO 33003KT 10SM CLR 27/19 A3008 RMK AO2 SLP206 T02720189
KHGR 211653Z VRB03KT 10SM FEW035 28/16 A3008 RMK AO2 SLP192 T02780161
K2W6 211737Z AUTO 06005KT 10SM CLR 27/18 A3004 RMK AO1
K2G4 211725Z AUTO 33006KT 10SM SCT035 SCT043 23/13 A3018 RMK AO1
KOXB 211653Z AUTO 04011KT 10SM CLR 28/19 A3001 RMK AO2 SLP161 T02830189 $
KSBY 211654Z 35006KT 10SM SCT048 29/19 A3000 RMK AO2 SLP161 T02890189
KSBY 211720Z 2118/2218 35008KT P6SM SCT040 
     FM220000 VRB03KT P6SM SCT200 
     FM221400 34008KT P6SM SCT200
       
KW29 211720Z AUTO 34006KT 10SM CLR 26/19 A3003 RMK AO2
KDMW 211725Z AUTO 32005KT 10SM SCT039 28/18 A3007 RMK AO2